Terminal Aerodrome Forecast
Issued by NWS

Home | Current Version | Previous Version | Text Only | Print | Product List | Glossary On
Versions: 1 2 3 4 5 6 7 8 9 10 11 12 13
437
FTUS44 KLZK 250536
TAFPBF
TAF
KPBF 250536Z 2506/2606 21004KT P6SM SCT120 BKN250
     FM251400 VRB03KT P6SM FEW030 BKN150
     FM251800 05005KT P6SM VCTS SCT030CB OVC250 PROB30 2520/2524 5SM
      TSRA BR BKN040CB
     FM260000 08004KT P6SM BKN250=

USA.gov is the U.S. government's official web portal to all federal, state and local government web resources and services.